createdAt,value
2023-04-22T00:04:22.312Z,4.13
2023-04-22T00:09:26.432Z,4.30
2023-04-22T00:14:29.693Z,4.20
2023-04-22T00:19:34.438Z,3.73
2023-04-22T00:24:37.685Z,4.03
2023-04-22T00:29:41.319Z,3.93
2023-04-22T00:34:44.795Z,3.77
2023-04-22T00:39:48.520Z,5.27
2023-04-22T00:44:52.409Z,5.40
2023-04-22T00:49:55.690Z,5.20
2023-04-22T00:54:58.985Z,5.43
2023-04-22T01:00:02.855Z,7.80
2023-04-22T01:05:09.930Z,7.93
2023-04-22T01:10:13.354Z,9.53
2023-04-22T01:15:16.700Z,6.93
2023-04-22T01:20:19.878Z,6.70
2023-04-22T01:25:23.156Z,6.13
2023-04-22T01:30:26.517Z,5.13
2023-04-22T01:35:30.956Z,4.57
2023-04-22T01:40:34.706Z,5.03
2023-04-22T01:45:38.169Z,4.90
2023-04-22T01:50:41.507Z,5.20
2023-04-22T01:55:45.262Z,5.60
2023-04-22T02:00:48.705Z,7.57
2023-04-22T02:05:52.011Z,6.63
2023-04-22T02:10:55.340Z,5.27
2023-04-22T02:15:58.488Z,6.80
2023-04-22T02:21:01.782Z,6.20
2023-04-22T02:26:05.674Z,6.03
2023-04-22T02:31:08.951Z,6.03
2023-04-22T02:36:12.703Z,5.43
2023-04-22T02:41:16.011Z,6.53
2023-04-22T02:46:19.406Z,6.63
2023-04-22T02:51:23.931Z,7.20
2023-04-22T02:56:27.778Z,6.40
2023-04-22T03:01:31.465Z,7.30
2023-04-22T03:06:34.915Z,7.90
2023-04-22T03:11:38.150Z,7.30
2023-04-22T03:16:41.851Z,8.03
2023-04-22T03:21:45.301Z,7.43
2023-04-22T03:26:48.623Z,6.87
2023-04-22T03:31:51.951Z,7.37
2023-04-22T03:36:55.169Z,7.73
2023-04-22T03:41:58.311Z,7.63
2023-04-22T03:47:01.597Z,11.10
2023-04-22T03:52:05.440Z,9.43
2023-04-22T03:57:08.714Z,8.30
2023-04-22T04:02:12.337Z,6.80
2023-04-22T04:07:15.829Z,7.17
2023-04-22T04:12:19.190Z,7.50
2023-04-22T04:17:26.163Z,6.90
2023-04-22T04:22:29.627Z,6.17
2023-04-22T04:27:33.260Z,6.60
2023-04-22T04:32:37.195Z,6.27
2023-04-22T04:37:43.280Z,6.77
2023-04-22T04:42:46.474Z,6.37
2023-04-22T04:47:53.327Z,7.83
2023-04-22T04:52:56.490Z,8.33
2023-04-22T04:57:59.779Z,8.60
2023-04-22T05:03:03.256Z,8.17
2023-04-22T05:08:06.590Z,8.50
2023-04-22T05:13:09.827Z,7.87
2023-04-22T05:18:13.177Z,8.30
2023-04-22T05:23:16.777Z,8.63
2023-04-22T05:28:20.001Z,8.80
2023-04-22T05:33:23.167Z,9.10
2023-04-22T05:38:26.779Z,8.33
2023-04-22T05:43:29.981Z,9.33
2023-04-22T05:48:33.249Z,8.83
2023-04-22T05:53:36.464Z,8.33
2023-04-22T05:58:39.792Z,8.77
2023-04-22T06:03:43.339Z,8.30
2023-04-22T06:08:46.662Z,8.70
2023-04-22T06:13:49.904Z,8.33
2023-04-22T06:18:53.533Z,8.27
2023-04-22T06:23:56.810Z,8.83
2023-04-22T06:29:05.660Z,9.00
2023-04-22T06:34:08.914Z,7.73
2023-04-22T06:39:12.151Z,10.07
2023-04-22T06:44:15.679Z,8.90
2023-04-22T06:49:18.884Z,10.20
2023-04-22T06:54:22.036Z,6.10
2023-04-22T06:59:25.252Z,7.97
2023-04-22T07:04:29.789Z,7.00
2023-04-22T07:09:33.018Z,7.03
2023-04-22T07:14:36.320Z,6.47
2023-04-22T07:19:40.098Z,6.93
2023-04-22T07:24:43.643Z,6.57
2023-04-22T07:29:46.917Z,6.80
2023-04-22T07:34:50.279Z,7.90
2023-04-22T07:39:53.657Z,7.03
2023-04-22T07:44:56.848Z,7.57
2023-04-22T07:50:00.242Z,6.83
2023-04-22T07:55:03.705Z,8.20
2023-04-22T08:00:08.350Z,6.57
2023-04-22T08:05:11.994Z,6.77
2023-04-22T08:10:15.235Z,6.90
2023-04-22T08:15:18.654Z,6.83
2023-04-22T08:20:22.027Z,6.67
2023-04-22T08:25:25.335Z,7.00
2023-04-22T08:30:28.647Z,7.33
2023-04-22T08:35:32.455Z,5.20
2023-04-22T08:40:36.718Z,5.67
2023-04-22T08:45:41.122Z,5.87
2023-04-22T08:50:44.927Z,5.97
2023-04-22T08:55:50.915Z,4.27
2023-04-22T09:00:55.194Z,4.47
2023-04-22T09:05:59.845Z,3.57
2023-04-22T09:11:04.542Z,4.03
2023-04-22T09:16:11.054Z,2.90
2023-04-22T09:21:14.713Z,3.33
2023-04-22T09:26:23.923Z,3.03
2023-04-22T09:31:28.781Z,4.22
2023-04-22T09:36:41.223Z,3.85
2023-04-22T09:41:44.692Z,2.88
2023-04-22T09:46:51.719Z,2.78
2023-04-22T09:51:58.651Z,3.30
2023-04-22T09:57:02.986Z,12.48
2023-04-22T10:02:07.573Z,2.85
2023-04-22T10:07:11.115Z,2.80
2023-04-22T10:12:16.557Z,4.40
2023-04-22T10:17:22.323Z,2.13
2023-04-22T10:22:26.319Z,3.03
2023-04-22T10:27:29.823Z,4.30
2023-04-22T10:32:33.645Z,2.53
2023-04-22T10:37:37.540Z,2.03
2023-04-22T10:42:41.910Z,1.70
2023-04-22T10:47:45.854Z,3.35
2023-04-22T10:52:56.773Z,2.78
2023-04-22T10:58:00.301Z,2.30
2023-04-22T11:03:12.662Z,1.88
2023-04-22T11:08:21.106Z,2.10
2023-04-22T11:13:27.405Z,2.30
2023-04-22T11:18:33.064Z,2.38
2023-04-22T11:23:37.409Z,1.80
2023-04-22T11:28:47.124Z,2.30
2023-04-22T11:33:50.976Z,2.20
2023-04-22T11:38:58.083Z,2.10
2023-04-22T11:44:02.078Z,2.13
2023-04-22T11:49:17.842Z,2.63
2023-04-22T11:54:31.948Z,2.03
2023-04-22T11:59:35.878Z,2.25
2023-04-22T12:04:43.962Z,2.10
2023-04-22T12:09:47.216Z,2.17
2023-04-22T12:14:50.430Z,2.42
2023-04-22T12:19:57.515Z,2.40
2023-04-22T12:25:02.161Z,2.47
2023-04-22T12:30:06.587Z,2.50
2023-04-22T12:35:09.975Z,2.13
2023-04-22T12:40:13.715Z,2.67
2023-04-22T12:45:21.952Z,2.47
2023-04-22T12:50:28.198Z,2.35
2023-04-22T12:55:31.425Z,2.70
2023-04-22T13:00:35.003Z,2.08
2023-04-22T13:05:41.103Z,2.58
2023-04-22T13:10:46.994Z,2.72
2023-04-22T13:15:54.319Z,2.33
2023-04-22T13:21:01.175Z,2.85
2023-04-22T13:26:05.537Z,2.83
2023-04-22T13:31:11.693Z,3.13
2023-04-22T13:36:14.972Z,2.92
2023-04-22T13:41:22.374Z,2.85
2023-04-22T13:46:25.880Z,2.60
2023-04-22T13:51:29.793Z,2.55
2023-04-22T13:56:33.478Z,2.60
2023-04-22T14:01:38.322Z,2.80
2023-04-22T14:06:42.101Z,2.80
2023-04-22T14:11:45.463Z,3.17
2023-04-22T14:16:49.718Z,3.22
2023-04-22T14:21:53.420Z,2.78
2023-04-22T14:27:01.953Z,2.90
2023-04-22T14:32:05.294Z,3.25
2023-04-22T14:37:08.755Z,2.70
2023-04-22T14:42:12.494Z,2.95
2023-04-22T14:47:16.005Z,3.47
2023-04-22T14:52:19.724Z,2.60
2023-04-22T14:57:23.130Z,3.85
2023-04-22T15:02:26.508Z,3.55
2023-04-22T15:07:30.470Z,3.30
2023-04-22T15:12:33.731Z,3.50
2023-04-22T15:17:37.110Z,3.13
2023-04-22T15:22:43.879Z,3.70
2023-04-22T15:27:47.926Z,3.70
2023-04-22T15:32:51.215Z,4.18
2023-04-22T15:37:54.700Z,3.97
2023-04-22T15:42:58.030Z,4.07
2023-04-22T15:48:01.589Z,4.20
2023-04-22T15:53:05.217Z,4.57
2023-04-22T15:58:08.372Z,4.40
2023-04-22T16:03:11.998Z,4.40
2023-04-22T16:08:15.492Z,4.68
2023-04-22T16:13:19.530Z,8.50
2023-04-22T16:18:22.835Z,5.85
2023-04-22T16:23:26.431Z,5.82
2023-04-22T16:28:29.776Z,8.20
2023-04-22T16:33:34.347Z,7.90
2023-04-22T16:38:37.623Z,5.05
2023-04-22T16:43:41.426Z,5.00
2023-04-22T16:48:45.357Z,5.97
2023-04-22T16:53:48.588Z,6.45
2023-04-22T16:58:52.156Z,6.88
2023-04-22T17:03:56.033Z,6.13
2023-04-22T17:09:01.504Z,7.22
2023-04-22T17:14:05.393Z,5.90
2023-04-22T17:19:08.687Z,6.28
2023-04-22T17:24:14.206Z,7.05
2023-04-22T17:29:22.038Z,7.50
2023-04-22T17:34:25.794Z,9.43
2023-04-22T17:39:29.096Z,8.10
2023-04-22T17:44:32.625Z,7.95
2023-04-22T17:49:36.055Z,10.82
2023-04-22T17:54:39.305Z,13.88
2023-04-22T17:59:43.314Z,13.60
2023-04-22T18:04:47.473Z,11.20
2023-04-22T18:09:51.752Z,9.88
2023-04-22T18:14:56.792Z,8.82
2023-04-22T18:20:13.814Z,8.35
2023-04-22T18:25:21.014Z,8.95
2023-04-22T18:30:25.589Z,12.73
2023-04-22T18:35:29.053Z,11.83
2023-04-22T18:40:32.812Z,10.43
2023-04-22T18:45:37.180Z,11.43
2023-04-22T18:50:41.544Z,17.27
2023-04-22T18:55:45.256Z,18.57
2023-04-22T19:00:51.896Z,11.90
2023-04-22T19:05:55.516Z,12.17
2023-04-22T19:10:59.320Z,12.43
2023-04-22T19:16:03.868Z,12.47
2023-04-22T19:21:08.320Z,10.97
2023-04-22T19:26:14.643Z,12.13
2023-04-22T19:31:19.238Z,20.47
2023-04-22T19:36:23.025Z,20.17
2023-04-22T19:41:27.844Z,18.47
2023-04-22T19:46:32.141Z,17.67
2023-04-22T19:51:36.332Z,16.20
2023-04-22T19:56:42.132Z,16.63
2023-04-22T20:01:47.004Z,16.37
2023-04-22T20:06:54.241Z,16.03
2023-04-22T20:12:00.060Z,15.20
2023-04-22T20:17:04.889Z,15.87
2023-04-22T20:22:11.561Z,16.07
2023-04-22T20:27:17.613Z,15.87
2023-04-22T20:32:21.553Z,15.80
2023-04-22T20:37:26.580Z,15.83
2023-04-22T20:42:30.936Z,15.77
2023-04-22T20:47:36.037Z,17.10
2023-04-22T20:52:41.014Z,16.90
2023-04-22T20:57:44.260Z,16.43
2023-04-22T21:02:48.099Z,23.60
2023-04-22T21:07:53.416Z,22.27
2023-04-22T21:12:58.154Z,20.70
2023-04-22T21:18:03.694Z,18.80
2023-04-22T21:23:08.261Z,18.70
2023-04-22T21:28:11.956Z,18.33
2023-04-22T21:33:15.824Z,19.10
2023-04-22T21:38:20.161Z,21.47
2023-04-22T21:43:23.807Z,20.60
2023-04-22T21:48:27.080Z,20.17
2023-04-22T21:53:30.341Z,17.17
2023-04-22T21:58:33.898Z,18.90
2023-04-22T22:03:37.379Z,22.63
2023-04-22T22:08:41.662Z,21.07
2023-04-22T22:13:48.819Z,21.40
2023-04-22T22:18:52.172Z,20.10
2023-04-22T22:23:55.472Z,20.67
2023-04-22T22:28:58.617Z,23.67
2023-04-22T22:34:01.712Z,25.10
2023-04-22T22:39:05.934Z,27.23
2023-04-22T22:44:09.564Z,25.47
2023-04-22T22:49:13.583Z,21.73
2023-04-22T22:54:17.499Z,20.83
2023-04-22T22:59:20.826Z,21.10
2023-04-22T23:04:24.652Z,22.10
2023-04-22T23:09:28.196Z,26.00
2023-04-22T23:14:33.262Z,28.73
2023-04-22T23:19:36.644Z,29.03
2023-04-22T23:24:40.726Z,27.70
2023-04-22T23:29:44.735Z,25.83
2023-04-22T23:34:50.287Z,24.27
2023-04-22T23:39:53.420Z,25.20
2023-04-22T23:44:57.053Z,23.40
2023-04-22T23:50:00.346Z,21.67
2023-04-22T23:55:05.383Z,20.73
